sensor_id;sensor_type;location;lat;lon;timestamp;temperature;humidity
18073;DHT22;9161;47.348;9.648;2022-11-09T00:00:20;4.80;99.90
18073;DHT22;9161;47.348;9.648;2022-11-09T00:05:05;4.70;99.90
18073;DHT22;9161;47.348;9.648;2022-11-09T00:09:50;4.80;99.90
18073;DHT22;9161;47.348;9.648;2022-11-09T00:14:34;4.90;99.90
18073;DHT22;9161;47.348;9.648;2022-11-09T00:19:18;5.10;99.90
18073;DHT22;9161;47.348;9.648;2022-11-09T00:24:01;4.80;99.90
18073;DHT22;9161;47.348;9.648;2022-11-09T00:28:46;4.70;99.90
18073;DHT22;9161;47.348;9.648;2022-11-09T00:33:30;4.50;99.90
18073;DHT22;9161;47.348;9.648;2022-11-09T00:38:14;4.70;99.90
18073;DHT22;9161;47.348;9.648;2022-11-09T00:42:57;4.60;99.90
18073;DHT22;9161;47.348;9.648;2022-11-09T00:47:43;4.40;99.90
18073;DHT22;9161;47.348;9.648;2022-11-09T00:52:27;4.70;99.90
18073;DHT22;9161;47.348;9.648;2022-11-09T00:57:11;4.80;99.90
18073;DHT22;9161;47.348;9.648;2022-11-09T01:01:55;4.80;99.90
18073;DHT22;9161;47.348;9.648;2022-11-09T01:06:40;4.60;99.90
18073;DHT22;9161;47.348;9.648;2022-11-09T01:11:23;4.60;99.90
18073;DHT22;9161;47.348;9.648;2022-11-09T01:16:09;4.50;99.90
18073;DHT22;9161;47.348;9.648;2022-11-09T01:20:52;4.50;99.90
18073;DHT22;9161;47.348;9.648;2022-11-09T01:25:38;4.40;99.90
18073;DHT22;9161;47.348;9.648;2022-11-09T01:30:21;4.20;99.90
18073;DHT22;9161;47.348;9.648;2022-11-09T01:35:05;4.30;99.90
18073;DHT22;9161;47.348;9.648;2022-11-09T01:39:49;4.20;99.90
18073;DHT22;9161;47.348;9.648;2022-11-09T01:44:37;4.20;99.90
18073;DHT22;9161;47.348;9.648;2022-11-09T01:49:28;4.40;99.90
18073;DHT22;9161;47.348;9.648;2022-11-09T01:54:16;4.50;99.90
18073;DHT22;9161;47.348;9.648;2022-11-09T01:59:02;4.50;99.90
18073;DHT22;9161;47.348;9.648;2022-11-09T02:03:51;5.00;99.90
18073;DHT22;9161;47.348;9.648;2022-11-09T02:08:36;5.90;99.90
18073;DHT22;9161;47.348;9.648;2022-11-09T02:13:22;6.50;99.90
18073;DHT22;9161;47.348;9.648;2022-11-09T02:18:07;9.20;99.90
18073;DHT22;9161;47.348;9.648;2022-11-09T02:22:52;10.60;99.90
18073;DHT22;9161;47.348;9.648;2022-11-09T02:27:36;11.20;99.90
18073;DHT22;9161;47.348;9.648;2022-11-09T02:32:22;11.30;99.90
18073;DHT22;9161;47.348;9.648;2022-11-09T02:43:11;11.00;99.90
18073;DHT22;9161;47.348;9.648;2022-11-09T02:47:55;9.30;99.90
18073;DHT22;9161;47.348;9.648;2022-11-09T02:52:39;8.60;99.90
18073;DHT22;9161;47.348;9.648;2022-11-09T02:57:23;8.00;99.90
18073;DHT22;9161;47.348;9.648;2022-11-09T03:02:07;7.50;99.90
18073;DHT22;9161;47.348;9.648;2022-11-09T03:06:51;7.60;99.90
18073;DHT22;9161;47.348;9.648;2022-11-09T03:11:35;10.50;99.90
18073;DHT22;9161;47.348;9.648;2022-11-09T03:16:19;11.30;99.90
18073;DHT22;9161;47.348;9.648;2022-11-09T03:21:04;11.60;99.90
18073;DHT22;9161;47.348;9.648;2022-11-09T03:25:48;11.40;99.90
18073;DHT22;9161;47.348;9.648;2022-11-09T03:30:32;10.60;99.90
18073;DHT22;9161;47.348;9.648;2022-11-09T03:35:16;9.50;99.90
18073;DHT22;9161;47.348;9.648;2022-11-09T03:40:01;8.70;99.90
18073;DHT22;9161;47.348;9.648;2022-11-09T03:44:44;8.20;99.90
18073;DHT22;9161;47.348;9.648;2022-11-09T03:49:28;8.20;99.90
18073;DHT22;9161;47.348;9.648;2022-11-09T03:54:11;8.30;99.90
18073;DHT22;9161;47.348;9.648;2022-11-09T03:58:56;8.30;99.90
18073;DHT22;9161;47.348;9.648;2022-11-09T04:03:39;8.20;99.90
18073;DHT22;9161;47.348;9.648;2022-11-09T04:08:23;8.10;99.90
18073;DHT22;9161;47.348;9.648;2022-11-09T04:13:06;8.00;99.90
18073;DHT22;9161;47.348;9.648;2022-11-09T04:17:56;8.00;99.90
18073;DHT22;9161;47.348;9.648;2022-11-09T04:22:39;7.90;99.90
18073;DHT22;9161;47.348;9.648;2022-11-09T04:27:23;7.70;99.90
18073;DHT22;9161;47.348;9.648;2022-11-09T04:32:06;7.60;99.90
18073;DHT22;9161;47.348;9.648;2022-11-09T04:36:51;7.60;99.90
18073;DHT22;9161;47.348;9.648;2022-11-09T04:41:35;7.70;99.90
18073;DHT22;9161;47.348;9.648;2022-11-09T04:46:18;7.70;99.90
18073;DHT22;9161;47.348;9.648;2022-11-09T04:51:03;7.70;99.90
18073;DHT22;9161;47.348;9.648;2022-11-09T04:55:50;7.70;99.90
18073;DHT22;9161;47.348;9.648;2022-11-09T05:00:34;7.60;99.90
18073;DHT22;9161;47.348;9.648;2022-11-09T05:05:17;7.60;99.90
18073;DHT22;9161;47.348;9.648;2022-11-09T05:10:01;7.60;99.90
18073;DHT22;9161;47.348;9.648;2022-11-09T05:14:46;7.50;99.90
18073;DHT22;9161;47.348;9.648;2022-11-09T05:19:29;7.60;99.90
18073;DHT22;9161;47.348;9.648;2022-11-09T05:24:13;7.70;99.90
18073;DHT22;9161;47.348;9.648;2022-11-09T05:28:57;7.80;99.90
18073;DHT22;9161;47.348;9.648;2022-11-09T05:33:42;7.80;99.90
18073;DHT22;9161;47.348;9.648;2022-11-09T05:38:25;7.90;99.90
18073;DHT22;9161;47.348;9.648;2022-11-09T05:43:09;8.00;99.90
18073;DHT22;9161;47.348;9.648;2022-11-09T05:47:52;7.90;99.90
18073;DHT22;9161;47.348;9.648;2022-11-09T05:52:37;8.10;99.90
18073;DHT22;9161;47.348;9.648;2022-11-09T05:57:21;8.00;99.90
18073;DHT22;9161;47.348;9.648;2022-11-09T06:02:05;7.90;99.90
18073;DHT22;9161;47.348;9.648;2022-11-09T06:06:48;7.80;99.90
18073;DHT22;9161;47.348;9.648;2022-11-09T06:11:33;7.80;99.90
18073;DHT22;9161;47.348;9.648;2022-11-09T06:16:17;7.70;99.90
18073;DHT22;9161;47.348;9.648;2022-11-09T06:21:02;7.60;99.90
18073;DHT22;9161;47.348;9.648;2022-11-09T06:25:46;7.50;99.90
18073;DHT22;9161;47.348;9.648;2022-11-09T06:30:33;7.50;99.90
18073;DHT22;9161;47.348;9.648;2022-11-09T06:35:16;7.70;99.90
18073;DHT22;9161;47.348;9.648;2022-11-09T06:40:00;7.90;99.90
18073;DHT22;9161;47.348;9.648;2022-11-09T06:44:44;7.90;99.90
18073;DHT22;9161;47.348;9.648;2022-11-09T06:49:28;8.20;99.90
18073;DHT22;9161;47.348;9.648;2022-11-09T06:54:12;8.30;99.90
18073;DHT22;9161;47.348;9.648;2022-11-09T06:58:55;8.30;99.90
18073;DHT22;9161;47.348;9.648;2022-11-09T07:03:39;8.30;99.90
18073;DHT22;9161;47.348;9.648;2022-11-09T07:08:24;8.50;99.90
18073;DHT22;9161;47.348;9.648;2022-11-09T07:13:08;8.50;99.90
18073;DHT22;9161;47.348;9.648;2022-11-09T07:17:55;8.60;99.90
18073;DHT22;9161;47.348;9.648;2022-11-09T07:22:39;8.80;99.90
18073;DHT22;9161;47.348;9.648;2022-11-09T07:27:24;9.00;99.90
18073;DHT22;9161;47.348;9.648;2022-11-09T07:32:09;9.20;99.90
18073;DHT22;9161;47.348;9.648;2022-11-09T07:36:52;9.30;99.90
18073;DHT22;9161;47.348;9.648;2022-11-09T07:41:36;9.50;99.90
18073;DHT22;9161;47.348;9.648;2022-11-09T07:46:21;9.60;99.90
18073;DHT22;9161;47.348;9.648;2022-11-09T07:51:04;10.00;99.90
18073;DHT22;9161;47.348;9.648;2022-11-09T07:55:55;10.20;99.90
18073;DHT22;9161;47.348;9.648;2022-11-09T08:00:40;10.10;99.90
18073;DHT22;9161;47.348;9.648;2022-11-09T08:05:26;10.40;99.90
18073;DHT22;9161;47.348;9.648;2022-11-09T08:10:11;10.60;99.90
18073;DHT22;9161;47.348;9.648;2022-11-09T08:14:54;11.00;99.90
18073;DHT22;9161;47.348;9.648;2022-11-09T08:19:38;11.30;99.90
18073;DHT22;9161;47.348;9.648;2022-11-09T08:24:23;11.20;99.90
18073;DHT22;9161;47.348;9.648;2022-11-09T08:29:07;10.90;99.90
18073;DHT22;9161;47.348;9.648;2022-11-09T08:33:51;10.80;99.90
18073;DHT22;9161;47.348;9.648;2022-11-09T08:38:34;10.70;99.90
18073;DHT22;9161;47.348;9.648;2022-11-09T08:43:19;11.10;99.90
18073;DHT22;9161;47.348;9.648;2022-11-09T08:48:04;12.10;99.90
18073;DHT22;9161;47.348;9.648;2022-11-09T08:52:47;11.30;99.90
18073;DHT22;9161;47.348;9.648;2022-11-09T08:57:32;11.00;99.90
18073;DHT22;9161;47.348;9.648;2022-11-09T09:02:17;11.10;99.90
18073;DHT22;9161;47.348;9.648;2022-11-09T09:07:01;11.30;99.90
18073;DHT22;9161;47.348;9.648;2022-11-09T09:11:45;11.50;99.90
18073;DHT22;9161;47.348;9.648;2022-11-09T09:16:29;11.80;99.90
18073;DHT22;9161;47.348;9.648;2022-11-09T09:21:14;12.00;99.90
18073;DHT22;9161;47.348;9.648;2022-11-09T09:25:58;12.70;99.90
18073;DHT22;9161;47.348;9.648;2022-11-09T09:30:41;13.80;99.90
18073;DHT22;9161;47.348;9.648;2022-11-09T09:35:25;13.70;99.90
18073;DHT22;9161;47.348;9.648;2022-11-09T09:40:21;14.10;99.90
18073;DHT22;9161;47.348;9.648;2022-11-09T09:45:09;13.80;99.90
18073;DHT22;9161;47.348;9.648;2022-11-09T09:50:00;13.40;99.90
18073;DHT22;9161;47.348;9.648;2022-11-09T09:54:51;13.30;99.90
18073;DHT22;9161;47.348;9.648;2022-11-09T09:59:40;13.30;99.90
18073;DHT22;9161;47.348;9.648;2022-11-09T10:04:31;13.50;99.90
18073;DHT22;9161;47.348;9.648;2022-11-09T10:09:24;13.90;99.90
18073;DHT22;9161;47.348;9.648;2022-11-09T10:14:25;14.50;99.90
18073;DHT22;9161;47.348;9.648;2022-11-09T10:19:36;14.70;99.90
18073;DHT22;9161;47.348;9.648;2022-11-09T10:24:27;15.20;99.90
18073;DHT22;9161;47.348;9.648;2022-11-09T10:29:20;15.50;99.90
18073;DHT22;9161;47.348;9.648;2022-11-09T10:34:15;15.60;99.90
18073;DHT22;9161;47.348;9.648;2022-11-09T10:39:00;15.40;99.90
18073;DHT22;9161;47.348;9.648;2022-11-09T10:43:44;15.00;99.90
18073;DHT22;9161;47.348;9.648;2022-11-09T10:48:33;14.80;99.90
18073;DHT22;9161;47.348;9.648;2022-11-09T10:53:18;15.30;99.90
18073;DHT22;9161;47.348;9.648;2022-11-09T10:58:28;15.50;99.90
18073;DHT22;9161;47.348;9.648;2022-11-09T11:03:16;15.40;99.90
18073;DHT22;9161;47.348;9.648;2022-11-09T11:08:21;15.10;99.90
18073;DHT22;9161;47.348;9.648;2022-11-09T11:13:21;14.30;99.90
18073;DHT22;9161;47.348;9.648;2022-11-09T11:18:14;13.60;99.90
18073;DHT22;9161;47.348;9.648;2022-11-09T11:23:10;13.50;99.90
18073;DHT22;9161;47.348;9.648;2022-11-09T11:27:59;13.40;99.90
18073;DHT22;9161;47.348;9.648;2022-11-09T11:32:47;13.50;99.90
18073;DHT22;9161;47.348;9.648;2022-11-09T11:37:44;13.60;99.90
18073;DHT22;9161;47.348;9.648;2022-11-09T11:42:40;13.80;99.90
18073;DHT22;9161;47.348;9.648;2022-11-09T11:47:37;13.90;99.90
18073;DHT22;9161;47.348;9.648;2022-11-09T11:52:30;13.90;99.90
18073;DHT22;9161;47.348;9.648;2022-11-09T11:57:25;14.50;99.90
18073;DHT22;9161;47.348;9.648;2022-11-09T12:07:35;14.60;99.90
18073;DHT22;9161;47.348;9.648;2022-11-09T12:12:29;14.70;99.90
18073;DHT22;9161;47.348;9.648;2022-11-09T12:17:24;14.90;99.90
18073;DHT22;9161;47.348;9.648;2022-11-09T12:27:35;14.80;99.90
18073;DHT22;9161;47.348;9.648;2022-11-09T12:32:33;14.50;99.90
18073;DHT22;9161;47.348;9.648;2022-11-09T12:37:22;14.30;99.90
18073;DHT22;9161;47.348;9.648;2022-11-09T12:42:12;14.30;99.90
18073;DHT22;9161;47.348;9.648;2022-11-09T12:47:03;14.20;99.90
18073;DHT22;9161;47.348;9.648;2022-11-09T12:51:48;14.10;99.90
18073;DHT22;9161;47.348;9.648;2022-11-09T12:56:43;14.00;99.90
18073;DHT22;9161;47.348;9.648;2022-11-09T13:01:48;14.00;99.90
18073;DHT22;9161;47.348;9.648;2022-11-09T13:06:34;13.90;99.90
18073;DHT22;9161;47.348;9.648;2022-11-09T13:11:20;13.70;99.90
18073;DHT22;9161;47.348;9.648;2022-11-09T13:16:32;13.60;99.90
18073;DHT22;9161;47.348;9.648;2022-11-09T13:21:38;13.50;99.90
18073;DHT22;9161;47.348;9.648;2022-11-09T13:26:53;13.40;99.90
18073;DHT22;9161;47.348;9.648;2022-11-09T13:42:31;13.20;99.90
18073;DHT22;9161;47.348;9.648;2022-11-09T13:47:22;13.10;99.90
18073;DHT22;9161;47.348;9.648;2022-11-09T13:57:26;12.80;99.90
18073;DHT22;9161;47.348;9.648;2022-11-09T14:02:17;12.70;99.90
18073;DHT22;9161;47.348;9.648;2022-11-09T14:07:03;12.60;99.90
18073;DHT22;9161;47.348;9.648;2022-11-09T14:11:58;12.60;99.90
18073;DHT22;9161;47.348;9.648;2022-11-09T14:16:52;12.50;99.90
18073;DHT22;9161;47.348;9.648;2022-11-09T14:21:44;12.40;99.90
18073;DHT22;9161;47.348;9.648;2022-11-09T14:26:28;13.20;99.90
18073;DHT22;9161;47.348;9.648;2022-11-09T14:31:23;13.80;99.90
18073;DHT22;9161;47.348;9.648;2022-11-09T14:36:12;13.90;99.90
18073;DHT22;9161;47.348;9.648;2022-11-09T14:40:56;13.40;99.90
18073;DHT22;9161;47.348;9.648;2022-11-09T14:45:46;13.50;99.90
18073;DHT22;9161;47.348;9.648;2022-11-09T14:50:34;14.00;99.90
18073;DHT22;9161;47.348;9.648;2022-11-09T14:55:22;13.50;99.90
18073;DHT22;9161;47.348;9.648;2022-11-09T15:00:24;12.90;99.90
18073;DHT22;9161;47.348;9.648;2022-11-09T15:05:31;12.40;99.90
18073;DHT22;9161;47.348;9.648;2022-11-09T15:10:20;12.30;99.90
18073;DHT22;9161;47.348;9.648;2022-11-09T15:15:06;12.10;99.90
18073;DHT22;9161;47.348;9.648;2022-11-09T15:19:52;11.90;99.90
18073;DHT22;9161;47.348;9.648;2022-11-09T15:24:46;11.80;99.90
18073;DHT22;9161;47.348;9.648;2022-11-09T15:29:39;11.70;99.90
18073;DHT22;9161;47.348;9.648;2022-11-09T15:34:25;11.60;99.90
18073;DHT22;9161;47.348;9.648;2022-11-09T15:39:14;11.50;99.90
18073;DHT22;9161;47.348;9.648;2022-11-09T15:43:58;11.40;99.90
18073;DHT22;9161;47.348;9.648;2022-11-09T15:48:43;11.40;99.90
18073;DHT22;9161;47.348;9.648;2022-11-09T15:53:27;11.30;99.90
18073;DHT22;9161;47.348;9.648;2022-11-09T15:58:13;11.30;99.90
18073;DHT22;9161;47.348;9.648;2022-11-09T16:02:57;11.20;99.90
18073;DHT22;9161;47.348;9.648;2022-11-09T16:07:50;11.20;99.90
18073;DHT22;9161;47.348;9.648;2022-11-09T16:12:36;11.20;99.90
18073;DHT22;9161;47.348;9.648;2022-11-09T16:17:28;11.10;99.90
18073;DHT22;9161;47.348;9.648;2022-11-09T16:22:12;11.10;99.90
18073;DHT22;9161;47.348;9.648;2022-11-09T16:26:58;11.10;99.90
18073;DHT22;9161;47.348;9.648;2022-11-09T16:31:43;11.10;99.90
18073;DHT22;9161;47.348;9.648;2022-11-09T16:36:33;11.10;99.90
18073;DHT22;9161;47.348;9.648;2022-11-09T16:41:24;11.10;99.90
18073;DHT22;9161;47.348;9.648;2022-11-09T16:46:12;11.00;99.90
18073;DHT22;9161;47.348;9.648;2022-11-09T16:51:01;11.00;99.90
18073;DHT22;9161;47.348;9.648;2022-11-09T16:55:45;10.90;99.90
18073;DHT22;9161;47.348;9.648;2022-11-09T17:00:29;10.90;99.90
18073;DHT22;9161;47.348;9.648;2022-11-09T17:05:35;10.80;99.90
18073;DHT22;9161;47.348;9.648;2022-11-09T17:10:19;10.80;99.90
18073;DHT22;9161;47.348;9.648;2022-11-09T17:15:10;10.70;99.90
18073;DHT22;9161;47.348;9.648;2022-11-09T17:19:55;10.70;99.90
18073;DHT22;9161;47.348;9.648;2022-11-09T17:24:40;10.70;99.90
18073;DHT22;9161;47.348;9.648;2022-11-09T17:29:24;10.70;99.90
18073;DHT22;9161;47.348;9.648;2022-11-09T17:34:08;10.70;99.90
18073;DHT22;9161;47.348;9.648;2022-11-09T17:38:54;10.70;99.90
18073;DHT22;9161;47.348;9.648;2022-11-09T17:43:44;10.60;99.90
18073;DHT22;9161;47.348;9.648;2022-11-09T17:48:29;10.60;99.90
18073;DHT22;9161;47.348;9.648;2022-11-09T17:53:14;10.50;99.90
18073;DHT22;9161;47.348;9.648;2022-11-09T17:58:01;10.50;99.90
18073;DHT22;9161;47.348;9.648;2022-11-09T18:02:48;10.60;99.90
18073;DHT22;9161;47.348;9.648;2022-11-09T18:07:33;10.60;99.90
18073;DHT22;9161;47.348;9.648;2022-11-09T18:12:18;10.50;99.90
18073;DHT22;9161;47.348;9.648;2022-11-09T18:17:03;10.50;99.90
18073;DHT22;9161;47.348;9.648;2022-11-09T18:21:53;10.50;99.90
18073;DHT22;9161;47.348;9.648;2022-11-09T18:26:37;10.50;99.90
18073;DHT22;9161;47.348;9.648;2022-11-09T18:31:23;10.50;99.90
18073;DHT22;9161;47.348;9.648;2022-11-09T18:36:13;10.50;99.90
18073;DHT22;9161;47.348;9.648;2022-11-09T18:41:02;10.50;99.90
18073;DHT22;9161;47.348;9.648;2022-11-09T18:45:53;10.50;99.90
18073;DHT22;9161;47.348;9.648;2022-11-09T18:50:39;10.50;99.90
18073;DHT22;9161;47.348;9.648;2022-11-09T18:55:27;10.50;99.90
18073;DHT22;9161;47.348;9.648;2022-11-09T19:00:17;10.40;99.90
18073;DHT22;9161;47.348;9.648;2022-11-09T19:05:03;10.40;99.90
18073;DHT22;9161;47.348;9.648;2022-11-09T19:09:52;10.40;99.90
18073;DHT22;9161;47.348;9.648;2022-11-09T19:14:38;10.40;99.90
18073;DHT22;9161;47.348;9.648;2022-11-09T19:19:33;10.40;99.90
18073;DHT22;9161;47.348;9.648;2022-11-09T19:24:23;10.40;99.90
18073;DHT22;9161;47.348;9.648;2022-11-09T19:29:08;10.40;99.90
18073;DHT22;9161;47.348;9.648;2022-11-09T19:33:53;10.30;99.90
18073;DHT22;9161;47.348;9.648;2022-11-09T19:38:40;10.30;99.90
18073;DHT22;9161;47.348;9.648;2022-11-09T19:43:27;10.30;99.90
18073;DHT22;9161;47.348;9.648;2022-11-09T19:48:13;10.30;99.90
18073;DHT22;9161;47.348;9.648;2022-11-09T19:52:57;10.30;99.90
18073;DHT22;9161;47.348;9.648;2022-11-09T19:57:43;10.30;99.90
18073;DHT22;9161;47.348;9.648;2022-11-09T20:02:29;10.30;99.90
18073;DHT22;9161;47.348;9.648;2022-11-09T20:07:14;10.30;99.90
18073;DHT22;9161;47.348;9.648;2022-11-09T20:12:00;10.40;99.90
18073;DHT22;9161;47.348;9.648;2022-11-09T20:17:04;10.40;99.90
18073;DHT22;9161;47.348;9.648;2022-11-09T20:21:50;10.40;99.90
18073;DHT22;9161;47.348;9.648;2022-11-09T20:26:34;10.40;99.90
18073;DHT22;9161;47.348;9.648;2022-11-09T20:31:20;10.40;99.90
18073;DHT22;9161;47.348;9.648;2022-11-09T20:36:09;10.40;99.90
18073;DHT22;9161;47.348;9.648;2022-11-09T20:40:54;10.40;99.90
18073;DHT22;9161;47.348;9.648;2022-11-09T20:45:39;10.40;99.90
18073;DHT22;9161;47.348;9.648;2022-11-09T20:50:24;10.30;99.90
18073;DHT22;9161;47.348;9.648;2022-11-09T20:55:11;10.30;99.90
18073;DHT22;9161;47.348;9.648;2022-11-09T20:59:57;10.30;99.90
18073;DHT22;9161;47.348;9.648;2022-11-09T21:04:46;10.30;99.90
18073;DHT22;9161;47.348;9.648;2022-11-09T21:09:33;10.30;99.90
18073;DHT22;9161;47.348;9.648;2022-11-09T21:14:19;10.30;99.90
18073;DHT22;9161;47.348;9.648;2022-11-09T21:19:04;10.30;99.90
18073;DHT22;9161;47.348;9.648;2022-11-09T21:23:49;10.30;99.90
18073;DHT22;9161;47.348;9.648;2022-11-09T21:28:52;10.30;99.90
18073;DHT22;9161;47.348;9.648;2022-11-09T21:33:56;10.30;99.90
18073;DHT22;9161;47.348;9.648;2022-11-09T21:38:40;10.20;99.90
18073;DHT22;9161;47.348;9.648;2022-11-09T21:43:24;10.20;99.90
18073;DHT22;9161;47.348;9.648;2022-11-09T21:48:08;10.30;99.90
18073;DHT22;9161;47.348;9.648;2022-11-09T21:52:53;10.30;99.90
18073;DHT22;9161;47.348;9.648;2022-11-09T21:57:36;10.30;99.90
18073;DHT22;9161;47.348;9.648;2022-11-09T22:02:22;10.30;99.90
18073;DHT22;9161;47.348;9.648;2022-11-09T22:07:06;10.20;99.90
18073;DHT22;9161;47.348;9.648;2022-11-09T22:11:51;10.30;99.90
18073;DHT22;9161;47.348;9.648;2022-11-09T22:16:53;10.30;99.90
18073;DHT22;9161;47.348;9.648;2022-11-09T22:21:37;10.30;99.90
18073;DHT22;9161;47.348;9.648;2022-11-09T22:26:23;10.30;99.90
18073;DHT22;9161;47.348;9.648;2022-11-09T22:31:09;10.30;99.90
18073;DHT22;9161;47.348;9.648;2022-11-09T22:35:53;10.40;99.90
18073;DHT22;9161;47.348;9.648;2022-11-09T22:40:37;10.40;99.90
18073;DHT22;9161;47.348;9.648;2022-11-09T22:45:20;10.40;99.90
18073;DHT22;9161;47.348;9.648;2022-11-09T22:50:06;10.40;99.90
18073;DHT22;9161;47.348;9.648;2022-11-09T22:54:50;10.30;99.90
18073;DHT22;9161;47.348;9.648;2022-11-09T22:59:33;10.30;99.90
18073;DHT22;9161;47.348;9.648;2022-11-09T23:04:17;10.30;99.90
18073;DHT22;9161;47.348;9.648;2022-11-09T23:09:02;10.30;99.90
18073;DHT22;9161;47.348;9.648;2022-11-09T23:13:50;10.30;99.90
18073;DHT22;9161;47.348;9.648;2022-11-09T23:18:34;10.20;99.90
18073;DHT22;9161;47.348;9.648;2022-11-09T23:23:37;10.20;99.90
18073;DHT22;9161;47.348;9.648;2022-11-09T23:28:22;10.10;99.90
18073;DHT22;9161;47.348;9.648;2022-11-09T23:33:06;10.20;99.90
18073;DHT22;9161;47.348;9.648;2022-11-09T23:37:56;10.10;99.90
18073;DHT22;9161;47.348;9.648;2022-11-09T23:42:40;10.20;99.90
18073;DHT22;9161;47.348;9.648;2022-11-09T23:47:25;10.20;99.90
18073;DHT22;9161;47.348;9.648;2022-11-09T23:52:09;10.10;99.90
18073;DHT22;9161;47.348;9.648;2022-11-09T23:56:53;10.10;99.90
